Time;durP1;ratioP1;P1;durP2;ratioP2;P2;SDS_P1;SDS_P2;PMS_P1;PMS_P2;Temp;Humidity;BMP_temperature;BMP_pressure;BME280_temperature;BME280_humidity;BME280_pressure;Samples;Min_cycle;Max_cycle;Signal;HPM_P1;HPM_P2
2023/05/30 00:01:19;;;;;;;9.43;3.50;;;9.70;1.00;;;;;;4940141;29;20238;-93
2023/05/30 00:03:46;;;;;;;6.97;3.20;;;9.60;1.00;;;;;;4940441;29;20276;-94
2023/05/30 00:06:15;;;;;;;5.90;2.80;;;9.60;1.00;;;;;;4940346;29;20208;-93
2023/05/30 00:08:42;;;;;;;6.10;2.73;;;9.60;1.00;;;;;;4943728;29;20199;-93
2023/05/30 00:11:09;;;;;;;8.97;3.20;;;9.70;1.00;;;;;;4938550;29;20210;-93
2023/05/30 00:13:36;;;;;;;8.03;3.20;;;9.70;1.00;;;;;;4940618;29;20203;-93
2023/05/30 00:16:03;;;;;;;5.67;2.47;;;9.70;1.00;;;;;;4940140;29;20227;-94
2023/05/30 00:18:34;;;;;;;7.90;2.67;;;9.70;1.00;;;;;;4945343;29;20201;-93
2023/05/30 00:21:02;;;;;;;7.67;2.17;;;9.70;1.00;;;;;;4939824;29;20212;-94
2023/05/30 00:23:31;;;;;;;7.83;2.30;;;9.60;1.00;;;;;;4939940;29;20203;-94
2023/05/30 00:25:59;;;;;;;6.60;2.40;;;9.60;1.00;;;;;;4939881;29;20277;-93
2023/05/30 00:28:26;;;;;;;6.00;2.70;;;9.60;1.00;;;;;;4940180;29;20678;-93
2023/05/30 00:30:53;;;;;;;8.53;2.60;;;9.60;1.00;;;;;;4940061;29;20214;-93
2023/05/30 00:33:21;;;;;;;5.57;2.57;;;9.60;1.00;;;;;;4939842;29;20200;-93
2023/05/30 00:35:48;;;;;;;6.13;2.90;;;9.60;1.00;;;;;;4939989;29;20228;-93
2023/05/30 00:38:15;;;;;;;5.33;2.60;;;9.60;1.00;;;;;;4939664;29;20202;-93
2023/05/30 00:40:43;;;;;;;5.63;2.53;;;9.50;1.00;;;;;;4939963;29;20207;-93
2023/05/30 00:43:10;;;;;;;7.47;2.97;;;9.50;17.20;;;;;;4939954;29;20219;-94
2023/05/30 00:45:37;;;;;;;7.50;3.27;;;9.50;50.30;;;;;;4939854;29;20645;-92
2023/05/30 00:48:06;;;;;;;7.37;3.17;;;9.40;92.90;;;;;;4939220;29;20203;-93
2023/05/30 00:50:34;;;;;;;8.90;3.10;;;9.40;93.50;;;;;;4944410;29;20206;-94
2023/05/30 00:53:01;;;;;;;5.10;2.87;;;9.40;99.90;;;;;;4939806;29;20258;-93
2023/05/30 00:55:29;;;;;;;12.70;3.37;;;9.40;93.00;;;;;;4939257;29;20210;-94
2023/05/30 00:57:57;;;;;;;6.57;3.23;;;9.30;75.00;;;;;;4936452;29;20199;-92
2023/05/30 01:00:26;;;;;;;9.47;3.47;;;9.30;72.50;;;;;;4928407;29;20312;-92
2023/05/30 01:02:57;;;;;;;7.67;3.23;;;9.20;99.90;;;;;;4939181;29;20199;-92
2023/05/30 01:05:24;;;;;;;7.33;3.50;;;9.20;99.90;;;;;;4939538;29;20244;-93
2023/05/30 01:07:52;;;;;;;10.33;3.13;;;9.10;99.90;;;;;;4939340;29;20251;-94
2023/05/30 01:10:19;;;;;;;8.90;3.47;;;9.00;99.90;;;;;;4928951;29;20206;-93
2023/05/30 01:12:53;;;;;;;8.70;3.70;;;8.90;99.90;;;;;;4939020;29;20287;-91
2023/05/30 01:15:27;;;;;;;7.53;3.90;;;8.90;99.90;;;;;;4948151;29;20714;-93
2023/05/30 01:18:01;;;;;;;7.80;4.10;;;8.80;99.90;;;;;;4939241;29;20198;-92
2023/05/30 01:20:32;;;;;;;10.03;4.33;;;8.70;99.90;;;;;;4944115;29;20193;-93
2023/05/30 01:23:15;;;;;;;10.90;4.00;;;8.60;99.90;;;;;;4939353;29;20213;-93
2023/05/30 01:25:59;;;;;;;8.00;4.23;;;8.50;99.90;;;;;;4938906;29;20653;-92
2023/05/30 01:28:30;;;;;;;7.83;3.40;;;8.50;99.90;;;;;;4938794;29;20644;-92
2023/05/30 01:30:59;;;;;;;6.17;3.63;;;8.40;99.90;;;;;;4939158;29;20201;-93
2023/05/30 01:33:27;;;;;;;5.53;3.50;;;8.40;99.90;;;;;;4939064;29;20256;-94
2023/05/30 01:35:53;;;;;;;11.43;3.83;;;8.30;99.90;;;;;;4938940;29;20277;-92
2023/05/30 01:38:20;;;;;;;7.50;3.63;;;8.20;99.90;;;;;;4938883;29;20211;-92
2023/05/30 01:40:50;;;;;;;10.97;4.47;;;8.20;99.90;;;;;;4928505;29;20201;-93
2023/05/30 01:43:25;;;;;;;9.70;4.00;;;8.10;1.00;;;;;;4924221;29;20246;-92
2023/05/30 01:45:58;;;;;;;9.27;3.80;;;8.10;1.00;;;;;;4931657;29;20207;-93
2023/05/30 01:48:35;;;;;;;7.40;3.87;;;8.00;1.00;;;;;;4948061;29;20203;-93
2023/05/30 01:51:06;;;;;;;8.17;3.50;;;8.00;1.00;;;;;;4938917;29;20201;-93
2023/05/30 01:53:39;;;;;;;8.90;3.37;;;8.00;1.00;;;;;;4938778;29;20201;-93
2023/05/30 01:56:08;;;;;;;8.10;3.17;;;8.00;1.00;;;;;;4938852;29;20665;-94
2023/05/30 01:58:37;;;;;;;8.70;2.53;;;8.10;1.00;;;;;;4938189;29;20197;-93
2023/05/30 02:01:07;;;;;;;6.33;2.47;;;8.10;1.00;;;;;;4942960;29;20598;-94
2023/05/30 02:03:34;;;;;;;7.20;2.30;;;8.10;1.00;;;;;;4938197;29;20196;-93
2023/05/30 02:06:01;;;;;;;7.93;2.50;;;8.00;1.00;;;;;;4938514;29;20220;-93
2023/05/30 02:08:28;;;;;;;9.73;2.90;;;8.00;1.00;;;;;;4937651;28;20229;-94
2023/05/30 02:10:55;;;;;;;8.10;2.50;;;8.00;1.00;;;;;;4937816;29;20675;-92
2023/05/30 02:13:22;;;;;;;6.47;2.53;;;8.00;1.00;;;;;;4937978;29;20269;-92
2023/05/30 02:15:48;;;;;;;5.90;2.40;;;7.90;1.00;;;;;;4938323;29;20212;-92
2023/05/30 02:18:17;;;;;;;7.53;2.50;;;7.90;1.00;;;;;;4937874;29;20663;-93
2023/05/30 02:20:44;;;;;;;6.63;2.70;;;7.90;1.00;;;;;;4938173;29;20197;-93
2023/05/30 02:23:10;;;;;;;5.70;2.47;;;7.80;1.00;;;;;;4937649;29;20204;-93
2023/05/30 02:25:37;;;;;;;8.43;2.57;;;7.80;1.00;;;;;;4941535;29;20196;-93
2023/05/30 02:28:05;;;;;;;8.43;2.90;;;7.70;1.00;;;;;;4943647;29;20208;-93
2023/05/30 02:30:32;;;;;;;6.10;2.60;;;7.70;1.00;;;;;;4937676;29;20698;-93
2023/05/30 02:32:59;;;;;;;7.40;2.50;;;7.60;1.00;;;;;;4937531;29;20660;-93
2023/05/30 02:35:27;;;;;;;8.77;2.90;;;7.60;1.00;;;;;;4937818;29;20260;-93
2023/05/30 02:37:54;;;;;;;7.03;2.60;;;7.60;1.00;;;;;;4937523;29;20251;-92
2023/05/30 02:40:20;;;;;;;9.40;2.90;;;7.60;1.00;;;;;;4937696;29;20227;-92
2023/05/30 02:42:47;;;;;;;5.27;2.60;;;7.60;1.00;;;;;;4936609;29;20218;-92
2023/05/30 02:45:14;;;;;;;11.23;3.20;;;7.60;10.90;;;;;;4932141;29;20674;-92
2023/05/30 02:47:41;;;;;;;10.77;3.80;;;7.60;42.90;;;;;;4937424;29;20204;-93
2023/05/30 02:50:09;;;;;;;5.77;2.70;;;7.60;99.90;;;;;;4937471;29;20205;-93
2023/05/30 02:52:37;;;;;;;8.73;2.53;;;7.60;99.90;;;;;;4937243;29;20201;-94
2023/05/30 02:55:04;;;;;;;7.57;2.67;;;7.60;99.90;;;;;;4937376;29;20248;-94
2023/05/30 02:57:32;;;;;;;6.87;2.43;;;7.70;99.90;;;;;;4937332;29;20222;-92
2023/05/30 02:59:58;;;;;;;8.13;2.87;;;7.70;99.90;;;;;;4932842;29;20254;-92
2023/05/30 03:02:25;;;;;;;7.57;2.73;;;7.70;99.90;;;;;;4917998;29;20206;-92
2023/05/30 03:04:52;;;;;;;9.50;3.13;;;7.70;99.90;;;;;;4919170;29;20205;-93
2023/05/30 03:07:19;;;;;;;8.43;3.10;;;7.80;99.90;;;;;;4922416;29;20193;-92
2023/05/30 03:09:47;;;;;;;7.10;2.43;;;7.80;99.90;;;;;;4918280;29;20207;-92
2023/05/30 03:12:14;;;;;;;7.87;2.60;;;7.80;99.90;;;;;;4905961;29;20210;-93
2023/05/30 03:14:40;;;;;;;7.60;2.50;;;7.90;99.90;;;;;;4917986;29;20208;-92
2023/05/30 03:17:08;;;;;;;8.90;2.80;;;7.90;99.90;;;;;;4918075;29;20255;-92
2023/05/30 03:19:35;;;;;;;5.77;2.63;;;8.00;99.90;;;;;;4918475;29;20198;-92
2023/05/30 03:22:02;;;;;;;9.07;3.33;;;8.00;99.90;;;;;;4924417;29;20568;-92
2023/05/30 03:24:30;;;;;;;7.33;2.97;;;8.00;99.90;;;;;;4924125;29;20201;-94
2023/05/30 03:26:58;;;;;;;10.67;3.20;;;8.00;99.90;;;;;;4924400;29;20197;-93
2023/05/30 03:29:25;;;;;;;9.13;3.13;;;8.00;99.90;;;;;;4911239;29;20220;-92
2023/05/30 03:31:52;;;;;;;8.30;3.20;;;8.10;99.90;;;;;;4924220;29;20389;-92
2023/05/30 03:34:19;;;;;;;9.37;3.13;;;8.10;99.90;;;;;;4924253;29;20204;-93
2023/05/30 03:36:46;;;;;;;8.10;2.67;;;8.10;99.90;;;;;;4924040;29;20230;-93
2023/05/30 03:39:14;;;;;;;10.40;2.87;;;8.20;99.90;;;;;;4924775;29;20206;-94
2023/05/30 03:41:40;;;;;;;7.93;2.50;;;8.20;99.90;;;;;;4924256;29;20663;-93
2023/05/30 03:44:08;;;;;;;11.00;2.90;;;8.30;99.90;;;;;;4924468;29;20228;-94
2023/05/30 03:46:35;;;;;;;7.60;3.17;;;8.30;99.90;;;;;;4924131;29;20215;-94
2023/05/30 03:49:02;;;;;;;8.90;3.23;;;8.40;99.90;;;;;;4921593;29;20305;-93
2023/05/30 03:51:29;;;;;;;13.40;3.67;;;8.50;99.90;;;;;;4913930;29;20208;-95
2023/05/30 03:53:56;;;;;;;13.07;3.60;;;8.60;99.90;;;;;;4924260;29;20213;-94
2023/05/30 03:56:23;;;;;;;9.23;2.87;;;9.00;1.00;;;;;;4933201;29;20212;-93
2023/05/30 03:58:49;;;;;;;6.87;3.13;;;9.90;1.00;;;;;;4914022;29;20300;-94
2023/05/30 04:01:18;;;;;;;7.33;3.33;;;10.80;59.10;;;;;;4938381;29;20744;-94
2023/05/30 04:03:46;;;;;;;6.97;2.90;;;11.60;1.00;;;;;;4942860;29;20661;-94
2023/05/30 04:06:13;;;;;;;6.27;3.17;;;12.20;99.90;;;;;;4943631;29;20200;-93
2023/05/30 04:08:40;;;;;;;7.30;3.00;;;12.80;99.90;;;;;;4943374;29;20240;-95
2023/05/30 04:11:07;;;;;;;6.00;3.10;;;13.40;99.90;;;;;;4943129;29;20217;-94
2023/05/30 04:13:34;;;;;;;10.63;3.77;;;13.80;1.00;;;;;;4943339;29;20210;-95
2023/05/30 04:16:02;;;;;;;6.90;4.13;;;14.30;1.00;;;;;;4942707;29;20262;-93
2023/05/30 04:18:30;;;;;;;8.40;4.10;;;14.70;1.00;;;;;;4943151;29;20228;-94
2023/05/30 04:20:56;;;;;;;9.67;4.13;;;15.10;1.00;;;;;;4952310;29;20208;-94
2023/05/30 04:23:23;;;;;;;7.03;3.63;;;15.30;1.00;;;;;;4929595;29;20223;-93
2023/05/30 04:25:50;;;;;;;9.50;3.97;;;15.40;1.00;;;;;;4933038;29;20214;-94
2023/05/30 04:28:19;;;;;;;9.43;4.50;;;15.50;1.00;;;;;;4942889;29;20195;-93
2023/05/30 04:30:48;;;;;;;10.35;4.80;;;15.70;1.00;;;;;;4942919;29;20203;-94
2023/05/30 04:33:15;;;;;;;12.77;5.10;;;15.90;1.00;;;;;;4939291;29;20203;-95
2023/05/30 04:35:44;;;;;;;12.45;4.82;;;16.30;1.00;;;;;;4939527;29;20227;-94
2023/05/30 04:38:19;;;;;;;10.25;4.90;;;16.50;1.00;;;;;;4939899;29;20596;-93
2023/05/30 04:40:49;;;;;;;8.20;4.25;;;16.80;1.00;;;;;;4946708;29;20227;-93
2023/05/30 04:43:19;;;;;;;9.35;3.95;;;17.00;1.00;;;;;;4943865;29;20613;-93
2023/05/30 04:45:47;;;;;;;7.03;3.30;;;17.20;99.90;;;;;;4939497;29;20707;-94
2023/05/30 04:48:16;;;;;;;10.65;3.30;;;17.40;99.90;;;;;;4939436;29;20197;-93
2023/05/30 04:50:46;;;;;;;20.23;4.85;;;17.50;99.90;;;;;;4936393;29;20299;-93
2023/05/30 04:53:15;;;;;;;4.72;2.50;;;17.70;99.90;;;;;;4939631;29;20256;-93
2023/05/30 04:55:43;;;;;;;6.20;2.65;;;17.80;99.90;;;;;;4941831;29;20208;-93
2023/05/30 04:58:09;;;;;;;6.13;2.67;;;17.90;99.90;;;;;;4944205;29;20221;-92
2023/05/30 05:00:37;;;;;;;10.02;3.05;;;17.70;99.90;;;;;;4945715;29;20229;-94
2023/05/30 05:03:04;;;;;;;6.93;2.70;;;17.40;99.90;;;;;;4943978;29;20210;-93
2023/05/30 05:05:31;;;;;;;9.55;3.33;;;16.90;99.90;;;;;;4939532;29;20205;-95
2023/05/30 05:07:59;;;;;;;9.35;2.92;;;16.50;99.90;;;;;;4939566;29;20216;-94
2023/05/30 05:10:26;;;;;;;8.40;2.72;;;16.10;99.90;;;;;;4938971;29;20723;-94
2023/05/30 05:12:53;;;;;;;7.30;2.95;;;15.70;99.90;;;;;;4939119;29;20207;-93
2023/05/30 05:15:20;;;;;;;10.98;3.42;;;15.40;99.90;;;;;;4939055;29;20207;-92
2023/05/30 05:17:46;;;;;;;9.65;3.22;;;15.10;99.90;;;;;;4938892;29;20227;-94
2023/05/30 05:20:13;;;;;;;5.47;2.67;;;14.90;99.90;;;;;;4927419;29;20206;-93
2023/05/30 05:22:40;;;;;;;13.85;3.47;;;14.80;99.90;;;;;;4937524;29;20207;-92
2023/05/30 05:25:09;;;;;;;9.35;3.35;;;14.60;99.90;;;;;;4938618;29;20204;-92
2023/05/30 05:27:36;;;;;;;7.13;3.03;;;14.60;1.00;;;;;;4938826;29;20562;-93
2023/05/30 05:30:03;;;;;;;5.30;2.53;;;14.50;1.00;;;;;;4925750;29;20212;-93
2023/05/30 05:32:36;;;;;;;6.20;3.07;;;14.50;1.00;;;;;;4938576;29;20208;-92
2023/05/30 05:35:03;;;;;;;9.23;2.90;;;14.40;1.00;;;;;;4945333;29;20250;-93
2023/05/30 05:37:29;;;;;;;11.37;3.40;;;14.50;1.00;;;;;;4941106;29;20231;-94
2023/05/30 05:39:56;;;;;;;10.73;2.93;;;14.40;1.00;;;;;;4938653;29;20215;-95
2023/05/30 05:42:24;;;;;;;9.43;2.67;;;14.40;1.00;;;;;;4942354;29;20207;-96
2023/05/30 05:44:51;;;;;;;6.30;2.97;;;14.40;1.00;;;;;;4939396;29;20667;-95
2023/05/30 05:47:18;;;;;;;4.53;2.47;;;14.40;1.00;;;;;;4941315;29;20211;-95
2023/05/30 05:49:44;;;;;;;7.10;2.20;;;14.40;1.00;;;;;;4938573;29;20214;-94
2023/05/30 05:52:11;;;;;;;5.43;2.73;;;14.40;1.00;;;;;;4936707;29;20212;-95
2023/05/30 05:54:38;;;;;;;7.47;2.47;;;14.40;1.00;;;;;;4942177;29;20211;-95
2023/05/30 05:57:06;;;;;;;8.00;2.60;;;14.40;1.00;;;;;;4939234;29;20212;-95
2023/05/30 05:59:34;;;;;;;4.73;2.23;;;14.40;1.00;;;;;;4931318;29;20660;-95
2023/05/30 06:02:01;;;;;;;6.80;2.47;;;14.30;1.00;;;;;;4912630;29;20212;-96
2023/05/30 06:04:28;;;;;;;7.13;2.57;;;14.30;1.00;;;;;;4911244;29;20204;-95
2023/05/30 06:06:54;;;;;;;4.90;2.33;;;14.40;1.00;;;;;;4914746;29;20338;-95
2023/05/30 06:09:21;;;;;;;5.77;2.40;;;14.40;1.00;;;;;;4912353;29;20216;-94
2023/05/30 06:11:48;;;;;;;6.93;3.07;;;14.50;1.00;;;;;;4915687;29;20205;-94
2023/05/30 06:14:15;;;;;;;5.83;2.20;;;14.50;1.00;;;;;;4919159;29;20207;-94
2023/05/30 06:16:43;;;;;;;5.73;2.10;;;14.60;1.00;;;;;;4906877;29;20217;-95
2023/05/30 06:19:10;;;;;;;8.20;2.20;;;14.60;1.00;;;;;;4914040;29;20588;-95
2023/05/30 06:21:36;;;;;;;6.80;2.50;;;14.70;1.00;;;;;;4910528;29;20202;-95
2023/05/30 06:24:05;;;;;;;4.67;2.40;;;14.80;1.00;;;;;;4916666;29;20213;-95
2023/05/30 06:26:32;;;;;;;3.47;2.30;;;14.90;1.00;;;;;;4912151;29;20238;-96
2023/05/30 06:28:59;;;;;;;7.67;2.90;;;15.00;1.00;;;;;;4911497;29;20207;-95
2023/05/30 06:31:26;;;;;;;4.03;2.73;;;15.00;1.00;;;;;;4909948;29;20215;-95
2023/05/30 06:33:54;;;;;;;5.93;3.50;;;15.10;1.00;;;;;;4914017;29;20206;-95
2023/05/30 06:36:21;;;;;;;7.57;2.90;;;15.20;1.00;;;;;;4906866;29;20660;-95
2023/05/30 06:38:47;;;;;;;7.90;2.50;;;15.20;1.00;;;;;;4910628;29;20219;-94
2023/05/30 06:41:14;;;;;;;4.60;2.60;;;15.30;1.00;;;;;;4918144;29;20203;-96
2023/05/30 06:43:41;;;;;;;3.80;2.53;;;15.40;1.00;;;;;;4917058;29;20203;-95
2023/05/30 06:46:08;;;;;;;6.25;2.70;;;15.50;1.00;;;;;;4917442;29;20237;-95
2023/05/30 06:48:34;;;;;;;3.75;2.20;;;15.50;99.90;;;;;;4921723;29;20203;-95
2023/05/30 06:51:03;;;;;;;6.28;2.85;;;15.60;99.90;;;;;;4920432;29;20215;-94
2023/05/30 06:53:30;;;;;;;5.15;2.92;;;15.60;99.90;;;;;;4920234;29;20202;-96
2023/05/30 06:55:56;;;;;;;6.00;2.47;;;15.60;99.90;;;;;;4919177;29;20211;-95
2023/05/30 06:58:23;;;;;;;6.22;2.13;;;15.60;99.90;;;;;;4919471;29;20226;-96
2023/05/30 07:00:50;;;;;;;21.40;6.40;;;15.70;99.90;;;;;;4933502;29;20240;-94
2023/05/30 07:03:17;;;;;;;4.03;1.77;;;15.80;99.90;;;;;;4939926;29;20211;-96
2023/05/30 07:05:44;;;;;;;3.65;1.80;;;15.90;99.90;;;;;;4938893;29;20202;-95
2023/05/30 07:08:13;;;;;;;4.43;2.30;;;15.90;99.90;;;;;;4939079;29;20573;-94
2023/05/30 07:10:39;;;;;;;6.93;2.13;;;16.00;99.90;;;;;;4938415;29;20214;-95
2023/05/30 07:13:06;;;;;;;6.40;2.30;;;16.10;99.90;;;;;;4934857;29;20345;-95
2023/05/30 07:15:33;;;;;;;4.45;2.20;;;16.20;99.90;;;;;;4941313;29;20204;-95
2023/05/30 07:18:00;;;;;;;6.22;2.53;;;16.20;99.90;;;;;;4933198;29;20406;-94
2023/05/30 07:20:26;;;;;;;8.50;3.60;;;16.20;99.90;;;;;;4937337;29;20701;-95
2023/05/30 07:22:53;;;;;;;5.90;2.25;;;16.20;99.90;;;;;;4936562;29;20207;-95
2023/05/30 07:25:21;;;;;;;8.48;3.33;;;16.30;99.90;;;;;;4938605;29;20204;-94
2023/05/30 07:27:48;;;;;;;5.22;1.92;;;16.30;99.90;;;;;;4939121;29;20196;-96
2023/05/30 07:30:15;;;;;;;3.92;1.40;;;16.40;99.90;;;;;;4940508;29;20206;-96
2023/05/30 07:32:42;;;;;;;3.88;1.73;;;16.50;99.90;;;;;;4942867;29;20207;-96
2023/05/30 07:35:09;;;;;;;4.68;1.63;;;16.50;99.90;;;;;;4937828;29;20212;-95
2023/05/30 07:37:36;;;;;;;3.33;1.80;;;16.50;99.90;;;;;;4938042;29;20214;-95
2023/05/30 07:40:05;;;;;;;3.08;1.40;;;16.60;99.90;;;;;;4936485;29;20200;-95
2023/05/30 07:42:34;;;;;;;6.57;1.48;;;16.60;99.90;;;;;;4944675;29;20205;-95
2023/05/30 07:45:01;;;;;;;6.78;2.05;;;16.70;99.90;;;;;;4940463;29;20215;-95
2023/05/30 07:47:28;;;;;;;5.63;1.60;;;16.80;99.90;;;;;;4939506;29;21018;-95
2023/05/30 07:49:55;;;;;;;5.20;2.40;;;16.90;99.90;;;;;;4927442;29;20211;-93
2023/05/30 07:52:22;;;;;;;4.03;1.60;;;16.90;99.90;;;;;;4933922;29;20216;-96
2023/05/30 07:54:49;;;;;;;4.63;2.08;;;17.00;99.90;;;;;;4939378;29;20685;-95
2023/05/30 07:57:15;;;;;;;3.17;1.60;;;17.10;99.90;;;;;;4938039;29;20635;-94
2023/05/30 07:59:44;;;;;;;4.50;2.47;;;17.10;99.90;;;;;;4937310;29;20227;-95
2023/05/30 08:02:11;;;;;;;3.63;1.80;;;17.20;99.90;;;;;;4937892;29;20204;-94
2023/05/30 08:04:38;;;;;;;3.88;1.67;;;17.20;99.90;;;;;;4935725;29;20211;-95
2023/05/30 08:07:06;;;;;;;2.47;1.40;;;17.30;99.90;;;;;;4937016;29;20210;-95
2023/05/30 08:09:33;;;;;;;2.92;1.55;;;17.30;99.90;;;;;;4942756;29;20204;-94
2023/05/30 08:12:01;;;;;;;3.95;1.73;;;17.30;99.90;;;;;;4946126;29;20242;-94
2023/05/30 08:14:28;;;;;;;4.07;1.50;;;17.30;99.90;;;;;;4946200;29;20282;-95
2023/05/30 08:16:56;;;;;;;5.28;2.00;;;17.40;99.90;;;;;;4930975;29;20217;-94
2023/05/30 08:19:23;;;;;;;3.72;1.80;;;17.40;99.90;;;;;;4937563;29;20218;-94
2023/05/30 08:21:50;;;;;;;6.13;1.90;;;17.50;99.90;;;;;;4942871;29;20201;-94
2023/05/30 08:24:16;;;;;;;6.93;1.90;;;17.60;99.90;;;;;;4940327;29;20207;-95
2023/05/30 08:26:44;;;;;;;4.13;1.80;;;17.60;99.90;;;;;;4941058;29;20196;-94
2023/05/30 08:29:11;;;;;;;3.25;2.08;;;17.60;99.90;;;;;;4940951;29;20200;-95
2023/05/30 08:31:38;;;;;;;3.72;1.33;;;17.70;99.90;;;;;;4939971;29;20667;-95
2023/05/30 08:34:06;;;;;;;3.08;1.60;;;17.80;99.90;;;;;;4939193;29;20203;-94
2023/05/30 08:36:34;;;;;;;9.27;6.03;;;17.80;99.90;;;;;;4942300;29;20197;-95
2023/05/30 08:39:01;;;;;;;3.88;1.50;;;17.90;99.90;;;;;;4935097;29;20691;-95
2023/05/30 08:41:28;;;;;;;3.42;1.50;;;17.90;99.90;;;;;;4940526;29;20209;-95
2023/05/30 08:43:55;;;;;;;5.07;2.85;;;17.90;99.90;;;;;;4931910;29;20685;-94
2023/05/30 08:46:22;;;;;;;4.43;1.75;;;18.00;99.90;;;;;;4938368;29;20201;-95
2023/05/30 08:48:51;;;;;;;4.28;1.80;;;18.10;99.90;;;;;;4942718;29;20201;-95
2023/05/30 08:51:23;;;;;;;2.85;1.40;;;18.10;99.90;;;;;;4941237;29;20205;-94
2023/05/30 08:53:54;;;;;;;3.63;1.90;;;18.10;99.90;;;;;;4939923;29;20654;-94
2023/05/30 08:56:29;;;;;;;4.55;1.35;;;18.20;99.90;;;;;;4942521;29;20200;-95
2023/05/30 08:59:00;;;;;;;3.33;1.52;;;18.30;99.90;;;;;;4931853;29;20226;-95
2023/05/30 09:01:28;;;;;;;4.78;1.58;;;18.40;99.90;;;;;;4934951;29;20695;-95
2023/05/30 09:03:57;;;;;;;4.45;1.67;;;18.40;99.90;;;;;;4940248;29;20204;-94
2023/05/30 09:06:26;;;;;;;7.03;3.30;;;18.50;99.90;;;;;;4940882;29;20204;-94
2023/05/30 09:08:55;;;;;;;4.72;2.63;;;18.50;99.90;;;;;;4939805;29;20193;-95
2023/05/30 09:11:22;;;;;;;3.78;1.83;;;18.60;99.90;;;;;;4940011;29;20570;-94
2023/05/30 09:13:49;;;;;;;3.92;1.77;;;18.70;99.90;;;;;;4939955;29;20206;-94
2023/05/30 09:16:16;;;;;;;5.95;2.33;;;18.70;99.90;;;;;;4930972;29;20197;-94
2023/05/30 09:18:43;;;;;;;2.80;1.40;;;18.80;99.90;;;;;;4942683;29;20239;-93
2023/05/30 09:21:10;;;;;;;10.05;5.95;;;18.80;99.90;;;;;;4939548;29;20208;-93
2023/05/30 09:23:41;;;;;;;5.05;1.90;;;18.90;99.90;;;;;;4941999;29;20211;-94
2023/05/30 09:26:10;;;;;;;4.05;1.42;;;18.90;99.90;;;;;;4940801;29;20219;-94
2023/05/30 09:28:37;;;;;;;3.88;1.75;;;19.00;99.90;;;;;;4938673;29;20224;-94
2023/05/30 09:31:04;;;;;;;4.43;2.47;;;19.10;99.90;;;;;;4939244;29;20197;-95
2023/05/30 09:33:45;;;;;;;2.42;1.45;;;19.10;99.90;;;;;;4942613;29;20730;-94
2023/05/30 09:36:18;;;;;;;4.38;1.55;;;19.10;99.90;;;;;;4938383;29;20246;-94
2023/05/30 09:38:56;;;;;;;17.48;7.22;;;19.10;99.90;;;;;;4941449;29;20220;-94
2023/05/30 09:41:23;;;;;;;3.28;1.40;;;19.20;99.90;;;;;;4941476;29;20211;-94
2023/05/30 09:43:53;;;;;;;5.53;1.63;;;19.20;99.90;;;;;;4941743;29;20200;-94
2023/05/30 09:46:20;;;;;;;3.58;2.35;;;19.40;99.90;;;;;;4941456;29;20208;-94
2023/05/30 09:48:47;;;;;;;3.30;1.50;;;19.40;99.90;;;;;;4941942;29;20208;-94
2023/05/30 09:51:16;;;;;;;3.75;1.50;;;19.50;99.90;;;;;;4941752;29;20224;-94
2023/05/30 09:53:57;;;;;;;1.83;1.30;;;19.50;99.90;;;;;;4939037;29;20212;-94
2023/05/30 09:56:36;;;;;;;5.30;1.52;;;19.50;99.90;;;;;;4939065;29;20268;-94
2023/05/30 09:59:07;;;;;;;4.80;2.63;;;19.60;99.90;;;;;;4931494;29;20224;-93
2023/05/30 10:01:39;;;;;;;4.25;1.60;;;19.60;99.90;;;;;;4939162;29;20699;-94
2023/05/30 10:04:18;;;;;;;4.35;1.50;;;19.70;99.90;;;;;;4937761;29;20215;-94
2023/05/30 10:06:47;;;;;;;2.22;1.35;;;19.80;99.90;;;;;;4941659;29;20208;-94
2023/05/30 10:09:15;;;;;;;4.15;2.90;;;19.80;99.90;;;;;;4939023;29;20204;-93
2023/05/30 10:11:44;;;;;;;7.13;2.10;;;19.90;99.90;;;;;;4944171;29;20196;-94
2023/05/30 10:14:12;;;;;;;3.00;1.40;;;19.90;99.90;;;;;;4941633;29;20211;-93
2023/05/30 10:16:45;;;;;;;2.90;1.70;;;19.90;98.50;;;;;;4940403;29;20211;-93
2023/05/30 10:19:16;;;;;;;3.90;1.58;;;20.00;99.70;;;;;;4935760;29;20218;-93
2023/05/30 10:21:45;;;;;;;2.15;1.23;;;20.10;98.20;;;;;;4941798;29;20201;-94
2023/05/30 10:24:17;;;;;;;7.72;2.20;;;20.10;97.00;;;;;;4938704;29;20208;-93
2023/05/30 10:26:48;;;;;;;2.33;1.20;;;20.20;96.20;;;;;;4938278;29;20212;-93
2023/05/30 10:29:17;;;;;;;3.47;1.40;;;20.20;93.60;;;;;;4938178;29;20197;-95
2023/05/30 10:31:44;;;;;;;4.22;1.40;;;20.20;92.80;;;;;;4937227;29;20203;-93
2023/05/30 10:34:13;;;;;;;2.88;1.58;;;20.30;92.00;;;;;;4936352;29;20198;-93
2023/05/30 10:36:42;;;;;;;3.83;1.65;;;20.30;90.90;;;;;;4940624;29;20747;-93
2023/05/30 10:39:28;;;;;;;2.65;1.30;;;20.30;89.50;;;;;;4938273;29;20225;-93
2023/05/30 10:42:01;;;;;;;4.55;1.38;;;20.40;87.90;;;;;;4939811;29;20680;-94
2023/05/30 10:44:35;;;;;;;3.35;1.60;;;20.40;85.60;;;;;;4940501;29;20200;-93
2023/05/30 10:47:19;;;;;;;2.35;1.20;;;20.40;84.20;;;;;;4929246;29;20204;-94
2023/05/30 10:49:48;;;;;;;4.65;1.42;;;20.50;85.20;;;;;;4939162;29;20199;-94
2023/05/30 10:52:17;;;;;;;4.03;1.30;;;20.50;79.30;;;;;;4936003;29;20216;-94
2023/05/30 10:54:49;;;;;;;2.30;1.30;;;20.50;80.00;;;;;;4941311;29;20553;-94
2023/05/30 10:57:28;;;;;;;3.28;1.30;;;20.60;80.40;;;;;;4938045;29;20228;-94
2023/05/30 10:59:55;;;;;;;2.53;1.40;;;20.60;78.70;;;;;;4939260;29;20311;-94
2023/05/30 11:02:34;;;;;;;2.70;1.63;;;20.70;75.80;;;;;;4942419;29;20204;-93
2023/05/30 11:05:05;;;;;;;3.50;1.23;;;20.70;74.00;;;;;;4928558;29;20211;-94
2023/05/30 11:07:35;;;;;;;2.90;1.35;;;20.70;73.00;;;;;;4935564;29;20257;-94
2023/05/30 11:10:06;;;;;;;3.72;1.70;;;20.80;69.20;;;;;;4937607;29;20269;-93
2023/05/30 11:12:33;;;;;;;2.60;1.42;;;20.90;68.60;;;;;;4939292;29;20211;-94
2023/05/30 11:15:00;;;;;;;2.45;1.30;;;20.90;68.30;;;;;;4931780;29;20296;-94
2023/05/30 11:17:32;;;;;;;4.13;1.40;;;21.00;69.60;;;;;;4937864;29;20204;-93
2023/05/30 11:20:08;;;;;;;2.17;1.15;;;21.10;68.90;;;;;;4937691;29;20220;-93
2023/05/30 11:22:34;;;;;;;1.95;1.25;;;21.20;63.40;;;;;;4937480;29;20260;-93
2023/05/30 11:25:23;;;;;;;5.10;1.38;;;21.30;62.80;;;;;;4930306;29;20208;-94
2023/05/30 11:28:15;;;;;;;2.15;1.10;;;21.30;62.40;;;;;;4938034;29;20401;-93
2023/05/30 11:30:46;;;;;;;2.67;1.40;;;21.40;59.60;;;;;;4940297;29;20204;-94
2023/05/30 11:33:13;;;;;;;2.67;1.48;;;21.40;57.20;;;;;;4938948;29;20216;-93
2023/05/30 11:35:44;;;;;;;2.47;1.10;;;21.30;56.10;;;;;;4939409;29;20208;-93
2023/05/30 11:38:10;;;;;;;3.58;1.20;;;21.40;57.20;;;;;;4937826;29;20545;-93
2023/05/30 11:40:43;;;;;;;4.25;1.27;;;21.50;56.20;;;;;;4936769;28;20224;-93
2023/05/30 11:43:10;;;;;;;6.13;1.30;;;21.60;53.50;;;;;;4940180;29;20253;-94
2023/05/30 11:45:37;;;;;;;6.10;1.63;;;21.70;56.40;;;;;;4945491;29;20334;-93
2023/05/30 11:48:06;;;;;;;3.50;1.58;;;21.80;54.60;;;;;;4927957;29;20567;-93
2023/05/30 11:50:38;;;;;;;3.60;1.40;;;21.90;53.80;;;;;;4941188;29;20207;-93
2023/05/30 11:53:11;;;;;;;3.10;1.30;;;21.90;53.50;;;;;;4943637;29;20208;-94
2023/05/30 11:55:38;;;;;;;3.65;1.60;;;22.00;54.70;;;;;;4939286;29;20610;-93
2023/05/30 11:58:06;;;;;;;4.93;1.40;;;22.10;53.60;;;;;;4940431;29;20280;-93
2023/05/30 12:00:33;;;;;;;5.78;1.70;;;22.10;49.70;;;;;;4943894;29;20229;-93
2023/05/30 12:03:02;;;;;;;2.78;1.30;;;22.20;49.20;;;;;;4942422;29;20215;-93
2023/05/30 12:05:29;;;;;;;4.80;1.40;;;22.30;48.40;;;;;;4941446;29;20287;-93
2023/05/30 12:07:56;;;;;;;4.03;1.42;;;22.40;47.20;;;;;;4942936;29;20208;-93
2023/05/30 12:10:29;;;;;;;5.70;1.20;;;22.40;46.30;;;;;;4940714;29;20272;-94
2023/05/30 12:12:56;;;;;;;16.08;11.20;;;22.30;46.80;;;;;;4942235;29;20209;-93
2023/05/30 12:15:24;;;;;;;9.05;5.28;;;22.50;44.20;;;;;;4942856;29;20201;-94
2023/05/30 12:17:51;;;;;;;3.58;1.20;;;22.50;42.10;;;;;;4940884;29;20216;-93
2023/05/30 12:20:18;;;;;;;5.28;1.45;;;22.50;36.80;;;;;;4941231;29;20208;-93
2023/05/30 12:22:45;;;;;;;3.75;1.45;;;22.50;35.70;;;;;;4940771;29;20208;-93
2023/05/30 12:25:13;;;;;;;2.70;1.30;;;22.50;36.20;;;;;;4939320;29;20659;-94
2023/05/30 12:27:43;;;;;;;3.08;1.70;;;22.50;36.40;;;;;;4949038;29;20205;-94
2023/05/30 12:30:14;;;;;;;5.40;1.75;;;22.60;37.00;;;;;;4946089;29;20739;-93
2023/05/30 12:32:43;;;;;;;4.60;1.50;;;22.60;35.00;;;;;;4937459;29;20204;-95
2023/05/30 12:35:10;;;;;;;4.93;1.45;;;22.60;33.60;;;;;;4939626;29;20205;-93
2023/05/30 12:37:37;;;;;;;2.63;1.23;;;22.60;33.20;;;;;;4941167;29;20237;-93
2023/05/30 12:40:06;;;;;;;4.05;1.42;;;22.70;31.50;;;;;;4939952;29;20221;-93
2023/05/30 12:42:34;;;;;;;4.43;1.40;;;22.70;31.10;;;;;;4943571;29;20197;-95
2023/05/30 12:45:03;;;;;;;2.83;1.25;;;22.80;30.90;;;;;;4940104;29;20213;-93
2023/05/30 12:47:30;;;;;;;1.73;1.23;;;22.90;30.00;;;;;;4942869;29;20205;-93
2023/05/30 12:49:59;;;;;;;3.22;1.40;;;23.00;38.40;;;;;;4940090;29;20204;-93
2023/05/30 12:52:29;;;;;;;3.40;1.55;;;23.10;28.50;;;;;;4937513;29;20215;-94
2023/05/30 12:54:56;;;;;;;2.40;1.17;;;23.20;28.40;;;;;;4941731;29;20205;-93
2023/05/30 12:57:25;;;;;;;2.97;1.33;;;23.30;26.00;;;;;;4943039;29;20201;-93
2023/05/30 12:59:52;;;;;;;3.00;1.38;;;23.40;26.10;;;;;;4940329;29;20229;-93